Terminal Aerodrome Forecast
Issued by NWS

Home | Current Version | Previous Version | Graphics & Text | Print | Product List | Glossary On
Versions: 1 2 3 4 5 6 7 8 9 10 11 12 13 14 15 16 17 18 19
000
FTUS43 KMPX 071726
TAFRWF
TAF
KRWF 071726Z 0718/0818 28020G28KT P6SM SCT025 BKN035 BKN050
     FM080300 29018G25KT P6SM -SN OVC020
     FM081500 32016G24KT P6SM -SN OVC025=

USA.gov is the U.S. government's official web portal to all federal, state and local government web resources and services.